Bearville North, Minnesota
Current Conditions -  °F | °C
As of 2:35 AM on Sunday 21 Dec 2014 (Local Time) from KCQM Reporting Station
Haze Haze  
Wind Chill: 22°   Ceiling: 500
Heat Index: 28°   Visibility: 5mi
Dew Point: 27°   Wind: 6mph
Humidity: 93%   Direction: 170°S
Pressure: 29.94"   Gusts: NA
Location:  47.8142°N, 92.9861°W
Report Text: KCQM 210835Z AUTO 17005KT 5SM BR OVC005 M02/M03 A2994 RMK AO2
Loading
Personal Weather Stations






























Interactive Weather Map New forecast layout! Learn more

10-Day Weather Forecast

Advertisements
Track Severe Weather on mobile